Time;durP1;ratioP1;P1;durP2;ratioP2;P2;SDS_P1;SDS_P2;PMS_P1;PMS_P2;Temp;Humidity;BMP_temperature;BMP_pressure;BME280_temperature;BME280_humidity;BME280_pressure;Samples;Min_cycle;Max_cycle;Signal;HPM_P1;HPM_P2
2024/01/16 00:00:29;;;;;;;8.00;5.30;;;;;;;-1.21;87.85;94812.76;108184;1281;137837;-85
2024/01/16 00:03:16;;;;;;;5.40;4.90;;;;;;;-1.23;88.04;94820.40;108429;1283;22558;-84
2024/01/16 00:05:43;;;;;;;7.00;4.70;;;;;;;-1.22;88.32;94825.78;108260;1277;138172;-84
2024/01/16 00:08:09;;;;;;;11.00;7.90;;;;;;;-1.21;88.09;94829.25;108384;1283;24289;-84
2024/01/16 00:10:36;;;;;;;8.20;6.00;;;;;;;-1.21;88.47;94834.35;108213;1275;138347;-84
2024/01/16 00:13:07;;;;;;;8.80;6.40;;;;;;;-1.24;88.72;94827.30;108316;1283;22535;-84
2024/01/16 00:15:33;;;;;;;6.70;5.40;;;;;;;-1.27;89.32;94828.14;108302;1277;22585;-84
2024/01/16 00:18:00;;;;;;;6.20;5.40;;;;;;;-1.28;89.17;94835.55;108309;1280;138598;-87
2024/01/16 00:20:27;;;;;;;5.90;5.00;;;;;;;-1.29;89.35;94832.40;108707;1275;22588;-87
2024/01/16 00:22:54;;;;;;;6.90;5.90;;;;;;;-1.30;89.83;94839.48;108657;1279;138395;-87
2024/01/16 00:25:21;;;;;;;7.70;5.30;;;;;;;-1.32;90.44;94840.98;108725;1281;22608;-87
2024/01/16 00:27:48;;;;;;;9.70;6.40;;;;;;;-1.34;90.01;94844.88;108833;1280;23314;-87
2024/01/16 00:30:14;;;;;;;7.90;5.60;;;;;;;-1.34;90.54;94846.28;108617;1283;137799;-87
2024/01/16 00:32:41;;;;;;;7.60;5.10;;;;;;;-1.33;90.18;94850.27;108788;1269;22651;-86
2024/01/16 00:35:08;;;;;;;6.90;5.00;;;;;;;-1.32;90.26;94854.73;108344;1278;138048;-83
2024/01/16 00:37:39;;;;;;;9.00;5.50;;;;;;;-1.31;90.64;94854.98;108545;1265;24690;-84
2024/01/16 00:40:08;;;;;;;7.00;6.10;;;;;;;-1.32;90.83;94861.02;108511;1276;23433;-84
2024/01/16 00:42:35;;;;;;;6.10;5.10;;;;;;;-1.35;91.19;94858.92;108359;1280;139408;-86
2024/01/16 00:45:02;;;;;;;6.90;5.90;;;;;;;-1.40;91.20;94861.11;108785;1283;22553;-86
2024/01/16 00:47:28;;;;;;;9.70;6.60;;;;;;;-1.42;91.55;94859.10;108654;1278;138521;-86
2024/01/16 00:49:55;;;;;;;8.70;6.20;;;;;;;-1.39;91.42;94868.52;108635;1282;22592;-86
2024/01/16 00:52:22;;;;;;;7.20;5.50;;;;;;;-1.38;91.75;94868.29;108349;1282;22836;-85
2024/01/16 00:54:48;;;;;;;7.20;5.30;;;;;;;-1.39;91.54;94873.58;108177;1283;138007;-85
2024/01/16 00:57:18;;;;;;;9.10;6.90;;;;;;;-1.40;91.31;94875.06;108361;1280;22559;-86
2024/01/16 00:59:46;;;;;;;7.60;4.80;;;;;;;-1.40;91.47;94876.34;108672;1275;137815;-87
2024/01/16 01:02:13;;;;;;;7.00;5.80;;;;;;;-1.40;91.17;94876.98;108756;1275;23314;-87
2024/01/16 01:04:41;;;;;;;6.40;5.40;;;;;;;-1.38;90.97;94885.75;108263;1281;138268;-84
2024/01/16 01:07:08;;;;;;;11.20;6.20;;;;;;;-1.37;91.06;94897.67;108409;1281;22595;-84
2024/01/16 01:09:35;;;;;;;9.20;7.70;;;;;;;-1.37;91.63;94894.35;108324;1278;22547;-85
2024/01/16 01:12:05;;;;;;;7.10;5.00;;;;;;;-1.39;91.66;94897.39;108372;1279;137487;-84
2024/01/16 01:14:31;;;;;;;11.30;6.60;;;;;;;-1.42;92.44;94899.52;108360;1277;22535;-84
2024/01/16 01:16:59;;;;;;;6.50;5.40;;;;;;;-1.43;92.19;94903.58;108341;1282;138512;-84
2024/01/16 01:19:25;;;;;;;6.50;5.60;;;;;;;-1.43;93.02;94901.05;108315;1282;22624;-85
2024/01/16 01:21:52;;;;;;;6.10;5.20;;;;;;;-1.44;93.86;94896.70;108263;1282;24445;-85
2024/01/16 01:24:19;;;;;;;7.40;5.30;;;;;;;-1.44;94.43;94897.95;108347;1281;138364;-85
2024/01/16 01:26:45;;;;;;;5.50;4.90;;;;;;;-1.48;94.86;94899.80;108802;1282;22565;-86
2024/01/16 01:29:12;;;;;;;7.40;6.00;;;;;;;-1.54;95.30;94897.59;108611;1275;136955;-87
2024/01/16 01:31:39;;;;;;;5.70;4.90;;;;;;;-1.58;95.53;94903.83;108769;1275;22682;-87
2024/01/16 01:34:07;;;;;;;8.10;5.10;;;;;;;-1.61;95.61;94900.55;108846;1281;22664;-87
2024/01/16 01:36:34;;;;;;;6.80;5.80;;;;;;;-1.62;95.75;94897.21;108684;1280;137198;-87
2024/01/16 01:39:01;;;;;;;6.80;4.90;;;;;;;-1.60;95.65;94895.09;108923;1281;22575;-86
2024/01/16 01:41:27;;;;;;;8.30;5.60;;;;;;;-1.58;95.19;94893.30;108634;1283;137177;-84
2024/01/16 01:43:54;;;;;;;8.10;6.90;;;;;;;-1.56;94.59;94894.08;108484;1281;22539;-84
2024/01/16 01:46:21;;;;;;;11.70;7.20;;;;;;;-1.55;93.94;94893.29;108455;1279;22722;-85
2024/01/16 01:48:48;;;;;;;9.60;6.30;;;;;;;-1.58;93.78;94890.20;108225;1282;137487;-85
2024/01/16 01:51:16;;;;;;;9.90;6.20;;;;;;;-1.59;93.65;94897.39;108397;1282;22628;-83
2024/01/16 01:53:43;;;;;;;6.40;5.50;;;;;;;-1.57;93.41;94900.13;108199;1282;137819;-84
2024/01/16 01:56:13;;;;;;;5.10;4.60;;;;;;;-1.57;93.03;94896.36;108433;1277;22907;-84
2024/01/16 01:58:40;;;;;;;4.70;4.20;;;;;;;-1.57;93.13;94900.83;108212;1282;138815;-84
2024/01/16 02:01:07;;;;;;;7.00;5.30;;;;;;;-1.58;93.60;94901.58;108349;1282;23022;-85
2024/01/16 02:03:39;;;;;;;6.30;5.40;;;;;;;-1.60;93.07;94900.89;108340;1282;24210;-85
2024/01/16 02:06:06;;;;;;;6.40;5.50;;;;;;;-1.61;93.08;94913.23;108231;1281;137652;-86
2024/01/16 02:08:33;;;;;;;5.70;5.10;;;;;;;-1.63;93.59;94910.88;108333;1280;24229;-85
2024/01/16 02:11:01;;;;;;;6.30;5.00;;;;;;;-1.65;93.42;94906.64;108389;1271;137909;-86
2024/01/16 02:13:28;;;;;;;6.40;5.20;;;;;;;-1.68;93.37;94908.08;108463;1275;22524;-85
2024/01/16 02:15:54;;;;;;;7.70;5.80;;;;;;;-1.69;93.38;94907.56;108319;1282;24199;-85
2024/01/16 02:18:21;;;;;;;6.30;5.30;;;;;;;-1.70;93.30;94907.00;108242;1281;138713;-85
2024/01/16 02:20:47;;;;;;;7.90;6.10;;;;;;;-1.70;93.63;94906.98;108327;1282;22718;-85
2024/01/16 02:23:14;;;;;;;6.90;5.00;;;;;;;-1.71;93.53;94911.45;108432;1277;137312;-86
2024/01/16 02:25:41;;;;;;;6.40;5.20;;;;;;;-1.71;94.21;94917.77;108859;1283;22587;-86
2024/01/16 02:28:08;;;;;;;5.00;4.60;;;;;;;-1.71;93.97;94925.20;108836;1277;22566;-87
2024/01/16 02:30:35;;;;;;;6.30;5.00;;;;;;;-1.71;93.84;94923.39;108489;1275;138260;-84
2024/01/16 02:33:03;;;;;;;5.40;4.40;;;;;;;-1.72;93.85;94932.90;108406;1277;22535;-84
2024/01/16 02:35:30;;;;;;;7.60;5.40;;;;;;;-1.71;93.81;94931.16;108292;1282;138799;-84
2024/01/16 02:37:57;;;;;;;6.10;4.80;;;;;;;-1.71;93.71;94931.02;108387;1281;22594;-84
2024/01/16 02:40:24;;;;;;;6.20;4.60;;;;;;;-1.71;93.73;94932.36;108745;1275;25569;-87
2024/01/16 02:42:50;;;;;;;7.10;4.60;;;;;;;-1.70;93.77;94928.55;108738;1275;137332;-87
2024/01/16 02:45:17;;;;;;;5.60;5.10;;;;;;;-1.69;93.58;94931.50;108572;1281;24235;-85
2024/01/16 02:47:44;;;;;;;6.20;5.00;;;;;;;-1.69;93.47;94930.60;108272;1282;138291;-86
2024/01/16 02:50:11;;;;;;;4.80;4.30;;;;;;;-1.69;93.29;94930.80;108496;1280;22587;-86
2024/01/16 02:52:37;;;;;;;4.90;4.30;;;;;;;-1.69;93.70;94939.48;108817;1280;137869;-86
2024/01/16 02:55:05;;;;;;;6.80;5.10;;;;;;;-1.67;93.59;94940.63;108747;1282;22584;-87
2024/01/16 02:57:32;;;;;;;6.20;5.20;;;;;;;-1.62;94.12;94938.09;108944;1279;22498;-86
2024/01/16 02:59:59;;;;;;;5.40;4.30;;;;;;;-1.56;93.98;94939.23;108618;1268;137313;-86
2024/01/16 03:02:26;;;;;;;5.50;4.10;;;;;;;-1.51;93.61;94942.14;108322;1282;22567;-85
2024/01/16 03:04:52;;;;;;;5.10;4.20;;;;;;;-1.47;93.92;94947.77;108228;1275;138540;-85
2024/01/16 03:07:19;;;;;;;4.80;4.20;;;;;;;-1.49;94.12;94939.42;108331;1282;24199;-85
2024/01/16 03:09:47;;;;;;;4.30;3.90;;;;;;;-1.49;93.57;94943.23;108300;1282;23888;-85
2024/01/16 03:12:14;;;;;;;4.40;3.60;;;;;;;-1.51;93.44;94935.70;108348;1282;138725;-85
2024/01/16 03:14:40;;;;;;;5.10;4.20;;;;;;;-1.49;93.26;94939.67;108282;1276;22527;-85
2024/01/16 03:17:07;;;;;;;4.50;3.90;;;;;;;-1.48;92.91;94936.11;108338;1282;137694;-85
2024/01/16 03:19:34;;;;;;;4.80;4.10;;;;;;;-1.49;93.11;94939.09;108295;1282;23796;-85
2024/01/16 03:22:00;;;;;;;4.30;3.80;;;;;;;-1.50;92.69;94942.42;108389;1282;22616;-85
2024/01/16 03:24:27;;;;;;;4.60;4.10;;;;;;;-1.54;93.01;94942.61;108617;1277;138196;-87
2024/01/16 03:26:54;;;;;;;5.10;3.70;;;;;;;-1.49;93.04;94949.00;108894;1273;22574;-86
2024/01/16 03:29:21;;;;;;;5.50;4.20;;;;;;;-1.48;92.96;94948.91;108396;1280;137269;-84
2024/01/16 03:31:47;;;;;;;5.10;4.30;;;;;;;-1.47;93.10;94945.90;108461;1282;23060;-84
2024/01/16 03:34:14;;;;;;;4.10;3.70;;;;;;;-1.45;93.06;94956.29;108676;1278;23466;-86
2024/01/16 03:36:41;;;;;;;4.60;4.10;;;;;;;-1.43;93.28;94959.30;108738;1279;137188;-85
2024/01/16 03:39:08;;;;;;;4.20;3.60;;;;;;;-1.40;93.31;94953.86;108465;1282;22633;-85
2024/01/16 03:41:36;;;;;;;4.70;4.10;;;;;;;-1.37;93.39;94958.71;108242;1282;137463;-84
2024/01/16 03:44:02;;;;;;;4.10;3.70;;;;;;;-1.36;93.76;94968.13;108384;1282;22542;-84
2024/01/16 03:46:29;;;;;;;4.80;4.40;;;;;;;-1.37;93.77;94970.47;108446;1281;22538;-84
2024/01/16 03:48:56;;;;;;;5.00;4.50;;;;;;;-1.40;93.67;94972.73;108428;1282;22543;-84
2024/01/16 03:51:22;;;;;;;4.70;3.80;;;;;;;-1.41;93.56;94968.21;108574;1277;23218;-84
2024/01/16 03:53:49;;;;;;;4.40;4.00;;;;;;;-1.41;93.20;94979.77;108334;1278;140690;-83
2024/01/16 03:56:16;;;;;;;4.50;4.10;;;;;;;-1.41;93.32;94988.27;108396;1276;25705;-84
2024/01/16 03:58:42;;;;;;;4.80;4.00;;;;;;;-1.42;93.63;94989.55;108796;1276;137978;-87
2024/01/16 04:01:09;;;;;;;4.40;4.00;;;;;;;-1.42;93.65;94986.52;108792;1274;22548;-86
2024/01/16 04:03:38;;;;;;;4.40;3.80;;;;;;;-1.40;93.75;94987.84;108883;1281;22590;-87
2024/01/16 04:06:17;;;;;;;6.10;4.70;;;;;;;-1.36;93.71;94998.89;108685;1281;138932;-86
2024/01/16 04:08:45;;;;;;;7.10;5.00;;;;;;;-1.34;93.54;94996.08;108927;1281;22524;-86
2024/01/16 04:11:13;;;;;;;4.40;3.60;;;;;;;-1.32;93.58;95003.52;108750;1284;138865;-85
2024/01/16 04:13:40;;;;;;;4.30;3.80;;;;;;;-1.28;93.49;95016.16;108753;1275;22556;-86
2024/01/16 04:16:07;;;;;;;3.70;3.40;;;;;;;-1.25;93.19;95018.26;108812;1282;22891;-87
2024/01/16 04:18:39;;;;;;;6.00;4.50;;;;;;;-1.25;93.54;95020.76;108792;1280;137917;-86
2024/01/16 04:21:06;;;;;;;4.50;3.80;;;;;;;-1.24;93.43;95032.25;108963;1276;22586;-86
2024/01/16 04:23:33;;;;;;;4.80;4.20;;;;;;;-1.24;93.67;95030.89;108779;1281;138016;-87
2024/01/16 04:26:00;;;;;;;4.70;4.30;;;;;;;-1.23;93.52;95033.27;108939;1281;22560;-86
2024/01/16 04:28:26;;;;;;;5.10;4.20;;;;;;;-1.21;93.48;95041.27;108824;1283;22601;-87
2024/01/16 04:30:53;;;;;;;45.40;22.50;;;;;;;-1.21;93.79;95042.98;108705;1276;137797;-86
2024/01/16 04:33:20;;;;;;;10.80;5.50;;;;;;;-1.23;93.91;95048.42;108854;1281;22694;-86
2024/01/16 04:35:47;;;;;;;4.40;4.00;;;;;;;-1.24;94.10;95045.96;108665;1282;136977;-86
2024/01/16 04:38:14;;;;;;;4.90;4.50;;;;;;;-1.25;94.28;95049.80;108846;1278;22618;-86
2024/01/16 04:40:40;;;;;;;7.30;4.10;;;;;;;-1.28;94.44;95053.63;108679;1282;137257;-86
2024/01/16 04:43:07;;;;;;;4.60;3.60;;;;;;;-1.28;94.18;95059.45;108750;1282;22622;-86
2024/01/16 04:45:34;;;;;;;5.20;4.70;;;;;;;-1.28;94.37;95058.22;108842;1275;22517;-86
2024/01/16 04:48:01;;;;;;;13.00;7.70;;;;;;;-1.27;94.16;95059.38;108739;1278;139367;-85
2024/01/16 04:50:31;;;;;;;18.80;9.10;;;;;;;-1.26;94.69;95065.23;108786;1279;22530;-86
2024/01/16 04:53:01;;;;;;;12.30;6.10;;;;;;;-1.27;94.57;95069.60;108675;1276;137253;-86
2024/01/16 04:55:31;;;;;;;8.70;5.50;;;;;;;-1.28;94.48;95075.90;108835;1283;22540;-86
2024/01/16 04:57:59;;;;;;;6.30;4.40;;;;;;;-1.28;94.25;95070.20;108755;1283;22565;-87
2024/01/16 05:00:26;;;;;;;10.30;6.00;;;;;;;-1.26;93.82;95076.09;108735;1276;139730;-87
2024/01/16 05:02:53;;;;;;;3.90;3.50;;;;;;;-1.23;93.66;95077.29;108599;1283;23243;-87
2024/01/16 05:05:20;;;;;;;4.90;3.80;;;;;;;-1.22;93.67;95085.55;108569;1276;136953;-86
2024/01/16 05:07:46;;;;;;;7.80;3.60;;;;;;;-1.23;93.62;95089.27;108834;1273;22583;-86
2024/01/16 05:10:15;;;;;;;7.20;5.10;;;;;;;-1.23;93.42;95094.65;108904;1280;22540;-86
2024/01/16 05:12:43;;;;;;;7.70;5.00;;;;;;;-1.22;93.40;95092.71;108735;1275;137080;-86
2024/01/16 05:15:14;;;;;;;5.70;4.80;;;;;;;-1.22;93.45;95099.95;108790;1280;22527;-86
2024/01/16 05:17:41;;;;;;;6.00;4.60;;;;;;;-1.21;93.58;95102.79;108712;1278;138579;-86
2024/01/16 05:20:09;;;;;;;5.10;4.00;;;;;;;-1.24;93.77;95108.71;108846;1282;22719;-86
2024/01/16 05:22:38;;;;;;;5.00;4.00;;;;;;;-1.27;94.09;95114.02;108637;1283;138660;-86
2024/01/16 05:25:09;;;;;;;3.90;3.50;;;;;;;-1.29;94.41;95120.86;108828;1281;22559;-87
2024/01/16 05:27:36;;;;;;;6.50;5.90;;;;;;;-1.30;94.24;95125.56;108877;1281;25421;-86
2024/01/16 05:30:03;;;;;;;11.20;6.00;;;;;;;-1.30;94.84;95117.73;108799;1283;138956;-86
2024/01/16 05:32:30;;;;;;;7.70;4.30;;;;;;;-1.31;95.16;95117.14;108918;1275;23046;-86
2024/01/16 05:34:57;;;;;;;4.30;3.90;;;;;;;-1.34;95.32;95118.29;108703;1279;138571;-86
2024/01/16 05:37:24;;;;;;;6.20;4.10;;;;;;;-1.39;95.77;95123.84;108925;1277;22498;-86
2024/01/16 05:39:50;;;;;;;9.00;6.10;;;;;;;-1.41;96.07;95125.70;108880;1275;22579;-86
2024/01/16 05:42:17;;;;;;;6.50;5.00;;;;;;;-1.41;96.71;95130.31;108759;1276;137345;-86
2024/01/16 05:44:44;;;;;;;7.00;4.80;;;;;;;-1.44;97.06;95138.05;108953;1276;23294;-86
2024/01/16 05:47:11;;;;;;;4.90;4.40;;;;;;;-1.48;98.09;95145.38;108742;1282;137696;-86
2024/01/16 05:49:38;;;;;;;6.20;4.80;;;;;;;-1.51;98.46;95149.88;108875;1283;22529;-86
2024/01/16 05:52:06;;;;;;;6.70;6.10;;;;;;;-1.55;99.59;95157.19;109003;1278;23021;-86
2024/01/16 05:54:33;;;;;;;26.10;13.80;;;;;;;-1.59;99.85;95157.84;108863;1276;137140;-86
2024/01/16 05:56:59;;;;;;;18.00;10.40;;;;;;;-1.59;100.00;95158.97;108860;1279;22487;-86
2024/01/16 05:59:26;;;;;;;14.20;7.10;;;;;;;-1.60;100.00;95155.66;108753;1277;137690;-87
2024/01/16 06:01:53;;;;;;;18.00;8.90;;;;;;;-1.59;100.00;95162.48;108801;1280;22679;-87
2024/01/16 06:04:20;;;;;;;10.10;5.80;;;;;;;-1.60;100.00;95162.92;108849;1280;22567;-86
2024/01/16 06:06:47;;;;;;;12.70;8.10;;;;;;;-1.59;100.00;95167.13;108676;1281;137804;-86
2024/01/16 06:09:14;;;;;;;16.90;9.40;;;;;;;-1.60;100.00;95169.16;108830;1279;22735;-86
2024/01/16 06:11:42;;;;;;;16.10;7.80;;;;;;;-1.60;100.00;95171.96;108763;1282;137032;-86
2024/01/16 06:14:09;;;;;;;10.80;6.90;;;;;;;-1.63;100.00;95171.15;108760;1283;22730;-86
2024/01/16 06:16:36;;;;;;;19.70;13.10;;;;;;;-1.63;100.00;95176.96;109049;1276;137621;-86
2024/01/16 06:19:04;;;;;;;11.40;6.60;;;;;;;-1.64;99.99;95180.40;108776;1284;22536;-86
2024/01/16 06:21:31;;;;;;;14.50;7.40;;;;;;;-1.64;100.00;95186.34;108921;1268;22582;-86
2024/01/16 06:23:58;;;;;;;6.20;5.00;;;;;;;-1.65;99.90;95181.22;108801;1277;137468;-86
2024/01/16 06:26:25;;;;;;;14.50;8.10;;;;;;;-1.65;99.95;95193.05;108850;1279;23894;-86
2024/01/16 06:28:52;;;;;;;5.30;4.50;;;;;;;-1.63;99.47;95195.92;108623;1282;138593;-83
2024/01/16 06:31:18;;;;;;;8.80;5.20;;;;;;;-1.62;98.89;95196.55;108817;1280;22563;-86
2024/01/16 06:33:45;;;;;;;9.50;5.70;;;;;;;-1.63;98.35;95200.73;108475;1284;22577;-85
2024/01/16 06:36:12;;;;;;;10.90;6.10;;;;;;;-1.66;98.27;95206.08;108704;1283;136740;-86
2024/01/16 06:38:40;;;;;;;7.40;4.60;;;;;;;-1.67;97.57;95211.79;108816;1283;22573;-87
2024/01/16 06:41:07;;;;;;;6.30;5.60;;;;;;;-1.65;96.91;95218.75;108733;1283;138523;-86
2024/01/16 06:43:34;;;;;;;30.20;10.80;;;;;;;-1.64;96.52;95224.55;109049;1283;22969;-87
2024/01/16 06:46:04;;;;;;;7.90;4.80;;;;;;;-1.60;96.27;95226.09;109284;1277;23069;-87
2024/01/16 06:48:36;;;;;;;9.20;4.80;;;;;;;-1.57;95.88;95231.64;108997;1282;137736;-89
2024/01/16 06:51:03;;;;;;;6.30;4.20;;;;;;;-1.55;95.45;95232.78;108556;1276;24421;-85
2024/01/16 06:53:30;;;;;;;6.20;4.70;;;;;;;-1.55;94.88;95236.96;108381;1270;138277;-86
2024/01/16 06:55:57;;;;;;;11.90;5.90;;;;;;;-1.55;94.43;95240.58;108376;1282;22579;-86
2024/01/16 06:58:23;;;;;;;6.80;4.50;;;;;;;-1.54;94.46;95245.25;108498;1282;22568;-86
2024/01/16 07:00:50;;;;;;;8.80;4.50;;;;;;;-1.53;94.34;95246.67;108313;1276;137979;-85
2024/01/16 07:03:17;;;;;;;6.60;4.50;;;;;;;-1.52;94.48;95250.50;108864;1283;22572;-87
2024/01/16 07:05:46;;;;;;;9.10;7.10;;;;;;;-1.54;93.89;95256.99;108711;1276;137496;-86
2024/01/16 07:08:13;;;;;;;7.40;4.60;;;;;;;-1.54;93.72;95263.10;108345;1274;22566;-84
2024/01/16 07:10:43;;;;;;;7.10;5.20;;;;;;;-1.54;93.43;95266.16;108362;1283;138054;-84
2024/01/16 07:13:12;;;;;;;6.10;4.40;;;;;;;-1.53;93.72;95277.29;108247;1280;22552;-82
2024/01/16 07:15:42;;;;;;;13.90;7.60;;;;;;;-1.51;93.52;95277.92;108455;1282;22554;-83
2024/01/16 07:18:10;;;;;;;6.40;4.70;;;;;;;-1.49;93.43;95282.40;108206;1276;139083;-85
2024/01/16 07:20:36;;;;;;;9.30;5.80;;;;;;;-1.50;93.30;95282.27;108363;1275;22560;-83
2024/01/16 07:23:07;;;;;;;12.40;6.30;;;;;;;-1.54;93.35;95279.52;108377;1276;137706;-83
2024/01/16 07:25:39;;;;;;;14.10;6.50;;;;;;;-1.52;93.20;95284.16;108457;1280;22867;-84
2024/01/16 07:28:06;;;;;;;8.70;5.50;;;;;;;-1.52;92.92;95292.92;108311;1280;22542;-84
2024/01/16 07:30:33;;;;;;;13.00;7.90;;;;;;;-1.52;93.19;95295.49;108283;1278;138187;-87
2024/01/16 07:32:59;;;;;;;8.40;5.50;;;;;;;-1.51;93.12;95297.13;108416;1276;23781;-83
2024/01/16 07:35:26;;;;;;;9.40;6.50;;;;;;;-1.51;92.80;95304.59;108194;1275;137591;-84
2024/01/16 07:37:53;;;;;;;5.90;4.70;;;;;;;-1.50;92.30;95304.52;108430;1283;23983;-85
2024/01/16 07:40:20;;;;;;;8.20;5.90;;;;;;;-1.51;92.41;95309.67;108332;1278;22541;-82
2024/01/16 07:42:49;;;;;;;5.80;5.00;;;;;;;-1.44;92.10;95320.54;108108;1280;140309;-83
2024/01/16 07:45:15;;;;;;;9.70;5.40;;;;;;;-1.42;92.17;95320.45;108507;1279;22538;-85
2024/01/16 07:47:42;;;;;;;6.20;4.70;;;;;;;-1.39;91.51;95330.93;108372;1277;137986;-83
2024/01/16 07:50:10;;;;;;;9.10;7.00;;;;;;;-1.36;91.49;95334.58;108415;1280;22560;-83
2024/01/16 07:52:36;;;;;;;11.10;8.40;;;;;;;-1.33;91.44;95332.27;108247;1275;137718;-84
2024/01/16 07:55:04;;;;;;;10.20;7.10;;;;;;;-1.32;91.24;95345.91;108311;1275;22542;-85
2024/01/16 07:57:30;;;;;;;9.90;6.70;;;;;;;-1.30;91.27;95344.36;108389;1276;22524;-85
2024/01/16 07:59:57;;;;;;;8.40;6.50;;;;;;;-1.27;90.95;95352.23;108150;1283;138267;-85
2024/01/16 08:02:32;;;;;;;13.20;7.40;;;;;;;-1.24;90.59;95357.41;108367;1275;24257;-85
2024/01/16 08:04:58;;;;;;;11.70;7.30;;;;;;;-1.22;90.92;95366.42;108041;1283;138819;-85
2024/01/16 08:07:27;;;;;;;6.40;5.50;;;;;;;-1.17;90.92;95366.23;108203;1277;22614;-83
2024/01/16 08:09:57;;;;;;;9.50;6.50;;;;;;;-1.16;91.19;95370.55;108200;1282;22578;-83
2024/01/16 08:12:24;;;;;;;9.20;5.10;;;;;;;-1.18;91.90;95372.23;108132;1282;137835;-82
2024/01/16 08:14:52;;;;;;;7.90;5.70;;;;;;;-1.21;92.14;95373.83;108311;1279;23222;-82
2024/01/16 08:17:19;;;;;;;39.40;13.90;;;;;;;-1.21;92.68;95373.80;108226;1282;137989;-83
2024/01/16 08:19:45;;;;;;;18.80;8.70;;;;;;;-1.19;92.37;95376.21;108321;1276;22548;-83
2024/01/16 08:22:12;;;;;;;12.60;5.50;;;;;;;-1.16;92.36;95376.79;108337;1277;22569;-83
2024/01/16 08:24:38;;;;;;;14.00;7.50;;;;;;;-1.14;91.77;95378.15;108213;1281;137899;-83
2024/01/16 08:27:05;;;;;;;14.20;9.00;;;;;;;-1.13;91.64;95382.13;108298;1281;22634;-83
2024/01/16 08:29:31;;;;;;;9.40;6.50;;;;;;;-1.11;91.14;95385.73;108084;1275;137967;-83
2024/01/16 08:31:58;;;;;;;5.60;4.00;;;;;;;-1.10;90.88;95387.17;108343;1275;22553;-83
2024/01/16 08:34:25;;;;;;;7.40;4.60;;;;;;;-1.11;90.71;95383.17;108434;1275;22550;-83
2024/01/16 08:36:56;;;;;;;3.90;3.10;;;;;;;-1.08;90.88;95391.95;108098;1281;140275;-85
2024/01/16 08:39:24;;;;;;;7.30;6.20;;;;;;;-1.08;90.64;95397.05;108178;1281;21767;-85
2024/01/16 08:41:51;;;;;;;7.60;4.60;;;;;;;-1.11;91.14;95401.55;108127;1273;137522;-84
2024/01/16 08:44:21;;;;;;;14.80;7.30;;;;;;;-1.15;92.27;95402.05;108276;1280;26150;-83
2024/01/16 08:46:50;;;;;;;13.10;7.30;;;;;;;-1.21;92.93;95404.77;108374;1274;138209;-82
2024/01/16 08:49:19;;;;;;;11.70;7.50;;;;;;;-1.26;93.71;95411.13;108452;1276;22536;-85
2024/01/16 08:51:46;;;;;;;13.60;9.10;;;;;;;-1.30;94.44;95412.99;108302;1277;22684;-84
2024/01/16 08:54:12;;;;;;;15.20;6.70;;;;;;;-1.33;94.43;95421.11;108076;1275;138526;-82
2024/01/16 08:56:42;;;;;;;9.60;5.10;;;;;;;-1.38;94.91;95420.30;108305;1282;23190;-84
2024/01/16 08:59:14;;;;;;;14.10;6.40;;;;;;;-1.35;96.23;95421.08;108193;1278;138457;-86
2024/01/16 09:01:41;;;;;;;13.90;7.00;;;;;;;-1.37;96.26;95424.55;108238;1274;22582;-84
2024/01/16 09:04:08;;;;;;;10.70;8.00;;;;;;;-1.41;96.84;95438.27;108404;1281;22603;-83
2024/01/16 09:06:35;;;;;;;24.00;10.60;;;;;;;-1.43;96.43;95439.94;108213;1278;138030;-85
2024/01/16 09:09:04;;;;;;;6.70;4.40;;;;;;;-1.43;96.71;95448.69;108358;1282;22530;-85
2024/01/16 09:11:32;;;;;;;17.50;6.90;;;;;;;-1.46;96.35;95453.17;108220;1276;138430;-84
2024/01/16 09:13:58;;;;;;;12.90;7.10;;;;;;;-1.47;96.97;95450.81;108273;1277;22615;-84
2024/01/16 09:16:25;;;;;;;14.80;10.20;;;;;;;-1.44;97.85;95452.52;108210;1281;22542;-85
2024/01/16 09:18:51;;;;;;;16.80;8.00;;;;;;;-1.43;97.93;95456.67;108073;1280;138132;-85
2024/01/16 09:21:18;;;;;;;7.40;5.40;;;;;;;-1.43;98.00;95449.19;108302;1278;22543;-82
2024/01/16 09:23:45;;;;;;;8.50;5.20;;;;;;;-1.41;97.79;95446.22;108250;1277;137856;-85
2024/01/16 09:26:11;;;;;;;11.20;7.00;;;;;;;-1.35;97.62;95444.85;108166;1279;22573;-85
2024/01/16 09:28:40;;;;;;;13.20;6.70;;;;;;;-1.26;97.43;95450.21;108113;1276;138820;-85
2024/01/16 09:31:07;;;;;;;13.10;11.50;;;;;;;-1.18;96.79;95446.96;108341;1282;24228;-84
2024/01/16 09:33:34;;;;;;;81.60;45.50;;;;;;;-1.09;96.82;95439.42;108313;1274;22692;-83
2024/01/16 09:36:02;;;;;;;54.90;30.90;;;;;;;-1.02;95.89;95441.31;108184;1276;137905;-85
2024/01/16 09:38:30;;;;;;;17.90;10.10;;;;;;;-0.96;95.29;95445.25;108238;1282;22538;-84
2024/01/16 09:40:59;;;;;;;17.70;10.40;;;;;;;-0.93;94.99;95448.55;108261;1276;137330;-86
2024/01/16 09:43:30;;;;;;;29.20;16.40;;;;;;;-0.91;94.52;95446.45;108312;1277;23898;-86
2024/01/16 09:45:56;;;;;;;12.30;8.50;;;;;;;-0.86;93.45;95442.63;108199;1279;22689;-85
2024/01/16 09:48:23;;;;;;;14.70;9.40;;;;;;;-0.82;92.92;95448.94;108093;1282;138062;-86
2024/01/16 09:50:50;;;;;;;5.50;4.20;;;;;;;-0.81;91.82;95449.90;108227;1278;22837;-84
2024/01/16 09:53:16;;;;;;;13.70;8.40;;;;;;;-0.82;92.34;95451.16;108204;1264;137631;-86
2024/01/16 09:55:43;;;;;;;16.30;10.00;;;;;;;-0.82;91.40;95451.29;108354;1282;22513;-86
2024/01/16 09:58:12;;;;;;;12.50;9.80;;;;;;;-0.80;90.85;95453.90;108265;1282;22505;-85
2024/01/16 10:00:39;;;;;;;21.60;10.10;;;;;;;-0.78;90.79;95456.55;108091;1281;138452;-84
2024/01/16 10:03:12;;;;;;;17.60;6.80;;;;;;;-0.74;90.20;95455.69;108204;1282;23780;-86
2024/01/16 10:05:40;;;;;;;12.60;5.50;;;;;;;-0.72;89.42;95462.29;108091;1275;137698;-86
2024/01/16 10:08:07;;;;;;;14.90;7.50;;;;;;;-0.69;90.02;95459.20;108384;1277;24883;-85
2024/01/16 10:10:39;;;;;;;14.40;8.10;;;;;;;-0.66;89.48;95458.17;108222;1259;25481;-84
2024/01/16 10:13:06;;;;;;;9.90;5.10;;;;;;;-0.62;89.24;95456.34;108229;1277;22531;-83
2024/01/16 10:15:33;;;;;;;13.90;6.20;;;;;;;-0.58;89.01;95457.02;108152;1275;23056;-83
2024/01/16 10:17:59;;;;;;;16.60;7.40;;;;;;;-0.56;89.20;95456.63;108172;1280;138406;-83
2024/01/16 10:20:33;;;;;;;8.30;4.30;;;;;;;-0.48;89.33;95451.67;108281;1278;24502;-84
2024/01/16 10:23:00;;;;;;;7.50;4.70;;;;;;;-0.40;88.65;95456.08;108260;1282;137800;-84
2024/01/16 10:25:26;;;;;;;23.00;13.30;;;;;;;-0.37;87.78;95454.48;108321;1275;23815;-84
2024/01/16 10:41:59;;;;;;;7.00;5.50;;;;;;;-0.02;84.30;95467.01;105814;1295;557709;-89
2024/01/16 10:44:27;;;;;;;5.00;3.40;;;;;;;-0.02;83.17;95473.58;107744;1285;113898;-88
2024/01/16 10:47:11;;;;;;;5.60;3.30;;;;;;;-0.09;84.27;95471.44;107726;1283;137488;-89
2024/01/16 10:49:38;;;;;;;12.70;4.90;;;;;;;-0.09;84.88;95474.56;107923;1283;22555;-89
2024/01/16 10:52:06;;;;;;;3.80;3.10;;;;;;;-0.10;84.49;95478.87;107697;1283;137481;-89
2024/01/16 10:54:36;;;;;;;14.50;6.60;;;;;;;-0.18;84.29;95471.30;107970;1289;22551;-88
2024/01/16 10:57:03;;;;;;;24.50;10.60;;;;;;;-0.26;84.30;95469.47;107824;1289;22572;-89
2024/01/16 10:59:34;;;;;;;8.80;4.70;;;;;;;-0.31;84.86;95480.96;107735;1282;136842;-89
2024/01/16 11:02:01;;;;;;;5.40;3.80;;;;;;;-0.33;84.93;95476.23;107875;1285;22548;-89
2024/01/16 11:04:28;;;;;;;4.70;3.60;;;;;;;-0.35;84.69;95485.53;107808;1285;136976;-89
2024/01/16 11:06:54;;;;;;;3.60;2.90;;;;;;;-0.42;84.45;95483.70;107894;1285;22530;-88
2024/01/16 11:09:21;;;;;;;5.50;3.80;;;;;;;-0.51;84.18;95484.80;107722;1285;137091;-89
2024/01/16 11:11:48;;;;;;;13.20;7.10;;;;;;;-0.55;85.20;95487.26;107840;1289;22568;-89
2024/01/16 11:14:14;;;;;;;21.80;9.90;;;;;;;-0.57;84.64;95483.96;107965;1283;23622;-89
2024/01/16 11:16:41;;;;;;;21.70;8.40;;;;;;;-0.57;84.69;95484.15;107832;1289;136989;-88
2024/01/16 11:19:08;;;;;;;18.40;7.40;;;;;;;-0.55;85.13;95483.85;107883;1289;22556;-89
2024/01/16 11:21:36;;;;;;;7.00;4.40;;;;;;;-0.51;85.50;95482.42;107830;1282;137708;-89
2024/01/16 11:24:02;;;;;;;10.70;6.40;;;;;;;-0.46;85.73;95483.38;107942;1288;22677;-88
2024/01/16 11:26:32;;;;;;;5.80;4.50;;;;;;;-0.39;86.12;95479.16;107925;1289;22546;-89
2024/01/16 11:29:00;;;;;;;9.60;5.70;;;;;;;-0.32;86.16;95485.63;107863;1282;136628;-89
2024/01/16 11:31:33;;;;;;;5.20;3.80;;;;;;;-0.28;85.71;95487.51;107917;1289;22563;-89
2024/01/16 11:34:00;;;;;;;3.40;3.00;;;;;;;-0.28;85.86;95486.02;107726;1282;137028;-89